Time;durP1;ratioP1;P1;durP2;ratioP2;P2;SDS_P1;SDS_P2;PMS_P1;PMS_P2;Temp;Humidity;BMP_temperature;BMP_pressure;BME280_temperature;BME280_humidity;BME280_pressure;Samples;Min_cycle;Max_cycle;Signal;HPM_P1;HPM_P2
2022/03/21 00:01:28;;;;;;;57.42;34.42;;;;;;;;;;5035934;28;20041;-86
2022/03/21 00:03:54;;;;;;;59.65;35.13;;;;;;;;;;5035534;28;20038;-86
2022/03/21 00:06:20;;;;;;;55.38;34.28;;;;;;;;;;5034306;28;20521;-86
2022/03/21 00:08:46;;;;;;;57.03;34.80;;;;;;;;;;5017578;28;20513;-86
2022/03/21 00:11:13;;;;;;;58.67;35.67;;;;;;;;;;5034281;28;20052;-86
2022/03/21 00:13:39;;;;;;;58.60;36.20;;;;;;;;;;5035629;28;20046;-85
2022/03/21 00:16:05;;;;;;;62.50;36.38;;;;;;;;;;5036043;28;20041;-86
2022/03/21 00:18:31;;;;;;;65.53;35.65;;;;;;;;;;5036932;28;20433;-85
2022/03/21 00:20:57;;;;;;;59.30;36.58;;;;;;;;;;5035196;28;20052;-85
2022/03/21 00:23:25;;;;;;;63.78;37.47;;;;;;;;;;5034785;28;20049;-86
2022/03/21 00:25:51;;;;;;;58.50;37.38;;;;;;;;;;5035886;28;20041;-86
2022/03/21 00:28:17;;;;;;;60.83;35.58;;;;;;;;;;5034282;28;20080;-85
2022/03/21 00:30:44;;;;;;;59.08;37.17;;;;;;;;;;5034692;28;20406;-85
2022/03/21 00:33:11;;;;;;;61.35;36.38;;;;;;;;;;5018706;28;20501;-85
2022/03/21 00:35:37;;;;;;;56.40;34.67;;;;;;;;;;5018424;28;20402;-85
2022/03/21 00:38:04;;;;;;;59.90;37.05;;;;;;;;;;5036271;28;20129;-85
2022/03/21 00:40:30;;;;;;;60.15;36.00;;;;;;;;;;5018540;28;20042;-85
2022/03/21 00:42:58;;;;;;;59.83;33.60;;;;;;;;;;5018515;28;20045;-85
2022/03/21 00:45:24;;;;;;;59.85;36.58;;;;;;;;;;5018139;28;20127;-85
2022/03/21 00:47:52;;;;;;;62.65;36.58;;;;;;;;;;5017642;28;20414;-86
2022/03/21 00:50:18;;;;;;;56.72;36.10;;;;;;;;;;5033818;28;20057;-84
2022/03/21 00:52:45;;;;;;;61.40;36.97;;;;;;;;;;5018060;28;20042;-86
2022/03/21 00:55:13;;;;;;;64.82;34.83;;;;;;;;;;5018287;28;20129;-85
2022/03/21 00:57:43;;;;;;;61.22;36.90;;;;;;;;;;5018581;28;20099;-85
2022/03/21 01:00:12;;;;;;;54.67;33.67;;;;;;;;;;5018450;28;20053;-85
2022/03/21 01:02:39;;;;;;;64.65;36.13;;;;;;;;;;5018298;28;20049;-85
2022/03/21 01:05:06;;;;;;;57.22;35.03;;;;;;;;;;5034502;28;20053;-85
2022/03/21 01:07:33;;;;;;;55.60;34.90;;;;;;;;;;5017782;28;20041;-86
2022/03/21 01:09:59;;;;;;;56.20;34.63;;;;;;;;;;5033767;28;20084;-85
2022/03/21 01:12:25;;;;;;;59.15;35.30;;;;;;;;;;5017379;28;20038;-85
2022/03/21 01:14:51;;;;;;;58.40;35.65;;;;;;;;;;5034467;28;20551;-85
2022/03/21 01:17:17;;;;;;;63.17;35.80;;;;;;;;;;5018564;28;20041;-86
2022/03/21 01:19:43;;;;;;;61.55;34.20;;;;;;;;;;5017458;28;20041;-85
2022/03/21 01:22:09;;;;;;;57.42;34.63;;;;;;;;;;5032550;28;20049;-85
2022/03/21 01:24:35;;;;;;;58.83;35.20;;;;;;;;;;5017326;28;20560;-85
2022/03/21 01:27:02;;;;;;;64.60;37.63;;;;;;;;;;5033464;28;20084;-85
2022/03/21 01:29:29;;;;;;;57.72;36.30;;;;;;;;;;5033835;28;20045;-84
2022/03/21 01:31:55;;;;;;;57.03;35.35;;;;;;;;;;5016949;28;20045;-85
2022/03/21 01:34:21;;;;;;;68.47;38.83;;;;;;;;;;5016381;28;20042;-85
2022/03/21 01:36:47;;;;;;;60.40;35.85;;;;;;;;;;5016759;28;20041;-84
2022/03/21 01:39:13;;;;;;;61.55;35.80;;;;;;;;;;5016616;28;20050;-85
2022/03/21 01:41:39;;;;;;;54.35;33.58;;;;;;;;;;5015998;28;20042;-86
2022/03/21 01:44:06;;;;;;;59.65;34.75;;;;;;;;;;5015623;28;20052;-85
2022/03/21 01:46:33;;;;;;;61.40;36.33;;;;;;;;;;5031980;28;20042;-85
2022/03/21 01:48:59;;;;;;;54.33;34.15;;;;;;;;;;5015598;28;20052;-85
2022/03/21 01:51:26;;;;;;;53.95;34.28;;;;;;;;;;5015870;28;20410;-84
2022/03/21 01:56:38;;;;;;;57.40;35.22;;;;;;;;;;5033145;28;20077;-85
2022/03/21 01:59:04;;;;;;;57.30;33.83;;;;;;;;;;5016611;28;20037;-85
2022/03/21 02:01:30;;;;;;;54.63;34.97;;;;;;;;;;5017494;28;20397;-85
2022/03/21 02:03:56;;;;;;;57.60;32.47;;;;;;;;;;5017031;28;20041;-85
2022/03/21 02:06:23;;;;;;;56.33;33.05;;;;;;;;;;5016235;28;20049;-84
2022/03/21 02:08:49;;;;;;;60.10;34.17;;;;;;;;;;5015563;28;20046;-86
2022/03/21 02:11:15;;;;;;;59.65;33.53;;;;;;;;;;5032993;28;20045;-85
2022/03/21 02:13:42;;;;;;;60.08;31.83;;;;;;;;;;5016335;28;20462;-85
2022/03/21 02:16:09;;;;;;;52.63;33.50;;;;;;;;;;5016095;28;20112;-85
2022/03/21 02:18:36;;;;;;;54.17;31.90;;;;;;;;;;5016000;28;20052;-86
2022/03/21 02:21:03;;;;;;;58.35;33.97;;;;;;;;;;5017506;28;20048;-85
2022/03/21 02:23:29;;;;;;;51.63;31.83;;;;;;;;;;5017075;28;20390;-85
2022/03/21 02:25:56;;;;;;;50.15;30.83;;;;;;;;;;5033227;28;20038;-86
2022/03/21 02:28:22;;;;;;;58.33;33.13;;;;;;;;;;5033016;28;20041;-85
2022/03/21 02:30:49;;;;;;;54.83;32.13;;;;;;;;;;5016153;28;20418;-86
2022/03/21 02:33:16;;;;;;;52.33;31.05;;;;;;;;;;5033728;28;20050;-85
2022/03/21 02:35:47;;;;;;;47.25;31.08;;;;;;;;;;5019990;28;20391;-85
2022/03/21 02:38:13;;;;;;;54.42;29.88;;;;;;;;;;5020071;28;20063;-85
2022/03/21 02:40:39;;;;;;;53.33;31.27;;;;;;;;;;5019941;28;20044;-86
2022/03/21 02:43:05;;;;;;;52.90;32.65;;;;;;;;;;5036345;28;20446;-86
2022/03/21 02:45:32;;;;;;;48.75;31.13;;;;;;;;;;5019144;28;20041;-86
2022/03/21 02:47:58;;;;;;;51.22;28.77;;;;;;;;;;5035554;28;20057;-85
2022/03/21 02:50:33;;;;;;;51.83;30.05;;;;;;;;;;5019755;28;20050;-86
2022/03/21 02:52:59;;;;;;;53.95;31.30;;;;;;;;;;5019002;28;20046;-86
2022/03/21 02:55:25;;;;;;;58.05;32.20;;;;;;;;;;5035802;28;20056;-86
2022/03/21 02:57:51;;;;;;;49.40;29.42;;;;;;;;;;5036413;28;20049;-86
2022/03/21 03:00:17;;;;;;;52.70;29.40;;;;;;;;;;5035959;28;20145;-85
2022/03/21 03:02:44;;;;;;;48.50;29.15;;;;;;;;;;5036745;28;20474;-86
2022/03/21 03:05:10;;;;;;;50.38;30.15;;;;;;;;;;5037061;28;20140;-85
2022/03/21 03:07:36;;;;;;;56.65;29.60;;;;;;;;;;5019823;28;20052;-86
2022/03/21 03:10:02;;;;;;;47.90;28.48;;;;;;;;;;5036957;28;20088;-85
2022/03/21 03:12:28;;;;;;;49.17;28.83;;;;;;;;;;5036219;28;20037;-85
2022/03/21 03:14:55;;;;;;;56.60;27.98;;;;;;;;;;5034961;28;20121;-85
2022/03/21 03:17:21;;;;;;;53.67;30.50;;;;;;;;;;5035395;28;20475;-85
2022/03/21 03:19:47;;;;;;;48.42;29.00;;;;;;;;;;5034541;28;20595;-86
2022/03/21 03:22:14;;;;;;;44.30;27.95;;;;;;;;;;5036303;28;20041;-84
2022/03/21 03:24:40;;;;;;;49.72;27.77;;;;;;;;;;5036524;28;20132;-85
2022/03/21 03:27:06;;;;;;;42.70;25.92;;;;;;;;;;5036808;28;20037;-85
2022/03/21 03:29:32;;;;;;;47.50;26.75;;;;;;;;;;5034759;28;20132;-85
2022/03/21 03:32:00;;;;;;;48.70;27.27;;;;;;;;;;5035100;28;20111;-84
2022/03/21 03:34:26;;;;;;;44.42;27.73;;;;;;;;;;5036795;28;20042;-85
2022/03/21 03:36:52;;;;;;;48.60;28.10;;;;;;;;;;5036561;28;20051;-85
2022/03/21 03:39:19;;;;;;;41.25;25.85;;;;;;;;;;5034416;28;20073;-85
2022/03/21 03:41:45;;;;;;;52.88;26.80;;;;;;;;;;5034698;28;20080;-84
2022/03/21 03:44:11;;;;;;;51.60;25.48;;;;;;;;;;5035994;28;20053;-86
2022/03/21 03:46:37;;;;;;;41.17;25.63;;;;;;;;;;5034597;28;20041;-86
2022/03/21 03:49:03;;;;;;;47.38;25.58;;;;;;;;;;5034755;28;20052;-85
2022/03/21 03:51:30;;;;;;;46.00;26.42;;;;;;;;;;5017971;28;20452;-85
2022/03/21 03:53:56;;;;;;;40.97;23.50;;;;;;;;;;5017713;28;20494;-85
2022/03/21 03:56:23;;;;;;;43.72;24.48;;;;;;;;;;5034138;28;20056;-85
2022/03/21 03:58:49;;;;;;;40.63;22.60;;;;;;;;;;5017756;28;20041;-85
2022/03/21 04:01:15;;;;;;;50.60;23.75;;;;;;;;;;5017285;28;20045;-85
2022/03/21 04:03:47;;;;;;;37.88;22.42;;;;;;;;;;5034064;28;20171;-85
2022/03/21 04:06:17;;;;;;;36.28;21.17;;;;;;;;;;5033869;28;20530;-86
2022/03/21 04:08:43;;;;;;;38.00;22.75;;;;;;;;;;5017624;28;20042;-85
2022/03/21 04:11:10;;;;;;;40.50;22.30;;;;;;;;;;5033877;28;20052;-85
2022/03/21 04:13:36;;;;;;;41.13;23.35;;;;;;;;;;5017822;28;20046;-85
2022/03/21 04:16:02;;;;;;;41.15;21.73;;;;;;;;;;5033875;28;20497;-85
2022/03/21 04:18:28;;;;;;;40.50;22.52;;;;;;;;;;5035371;28;20045;-85
2022/03/21 04:20:54;;;;;;;40.75;22.10;;;;;;;;;;5035085;28;20041;-85
2022/03/21 04:23:20;;;;;;;40.63;20.88;;;;;;;;;;5034482;28;20056;-85
2022/03/21 04:25:47;;;;;;;34.17;21.05;;;;;;;;;;5034888;28;20132;-86
2022/03/21 04:28:14;;;;;;;30.15;18.90;;;;;;;;;;5033939;28;20091;-85
2022/03/21 04:30:41;;;;;;;36.05;21.63;;;;;;;;;;5033811;28;20045;-85
2022/03/21 04:33:10;;;;;;;35.03;19.15;;;;;;;;;;5033387;28;20051;-85
2022/03/21 04:35:37;;;;;;;31.30;18.92;;;;;;;;;;5017877;28;20087;-85
2022/03/21 04:38:12;;;;;;;29.35;18.42;;;;;;;;;;5033889;28;20041;-85
2022/03/21 04:40:38;;;;;;;34.33;19.00;;;;;;;;;;5033600;28;20057;-85
2022/03/21 04:43:04;;;;;;;32.83;18.58;;;;;;;;;;5017482;28;20042;-85
2022/03/21 04:45:30;;;;;;;39.33;17.48;;;;;;;;;;5017718;28;20053;-86
2022/03/21 04:47:56;;;;;;;37.35;18.25;;;;;;;;;;5016788;28;20057;-86
2022/03/21 04:50:22;;;;;;;40.17;18.23;;;;;;;;;;5033642;28;20053;-88
2022/03/21 04:52:48;;;;;;;31.10;16.73;;;;;;;;;;5034732;28;20064;-87
2022/03/21 04:55:15;;;;;;;36.50;19.15;;;;;;;;;;5033906;28;20561;-86
2022/03/21 04:57:42;;;;;;;34.25;17.77;;;;;;;;;;5033641;28;20091;-88
2022/03/21 05:00:08;;;;;;;27.88;17.20;;;;;;;;;;5017342;28;20060;-87
2022/03/21 05:02:34;;;;;;;33.25;18.45;;;;;;;;;;5018536;28;20045;-87
2022/03/21 05:05:00;;;;;;;36.15;17.15;;;;;;;;;;5016484;28;20084;-89
2022/03/21 05:07:26;;;;;;;27.83;17.02;;;;;;;;;;5017337;28;20072;-88
2022/03/21 05:09:52;;;;;;;29.02;18.63;;;;;;;;;;5033347;28;20048;-88
2022/03/21 05:12:20;;;;;;;29.90;17.70;;;;;;;;;;5033730;28;20049;-87
2022/03/21 05:14:47;;;;;;;29.90;16.15;;;;;;;;;;5016555;28;20041;-87
2022/03/21 05:17:13;;;;;;;28.70;17.67;;;;;;;;;;5034006;28;20042;-88
2022/03/21 05:19:40;;;;;;;30.02;17.05;;;;;;;;;;5033015;28;20053;-87
2022/03/21 05:22:07;;;;;;;33.63;18.67;;;;;;;;;;5032207;28;20498;-89
2022/03/21 05:35:53;;;;;;;26.30;16.35;;;;;;;;;;5032792;28;20050;-87
2022/03/21 05:35:55;;;;;;;25.98;15.65;;;;;;;;;;5034757;28;20041;-86
2022/03/21 05:38:22;;;;;;;28.77;16.20;;;;;;;;;;5034012;28;20620;-85
2022/03/21 05:40:48;;;;;;;29.13;17.45;;;;;;;;;;5035470;28;20132;-85
2022/03/21 05:43:15;;;;;;;26.45;16.95;;;;;;;;;;5033653;28;20490;-85
2022/03/21 05:45:41;;;;;;;27.95;15.57;;;;;;;;;;5032751;28;20132;-85
2022/03/21 05:50:52;;;;;;;29.23;15.25;;;;;;;;;;5032550;28;20053;-85
2022/03/21 05:53:18;;;;;;;28.45;16.88;;;;;;;;;;5016807;28;20099;-85
2022/03/21 05:55:45;;;;;;;28.65;16.13;;;;;;;;;;5034409;28;20054;-86
2022/03/21 05:58:12;;;;;;;26.48;14.85;;;;;;;;;;5034262;28;20084;-85
2022/03/21 06:00:38;;;;;;;25.40;15.25;;;;;;;;;;5016440;28;20107;-86
2022/03/21 06:03:04;;;;;;;26.45;15.52;;;;;;;;;;5016665;28;20041;-86
2022/03/21 06:05:31;;;;;;;22.98;14.70;;;;;;;;;;5017106;28;20041;-86
2022/03/21 06:07:58;;;;;;;27.90;15.27;;;;;;;;;;5018025;28;20394;-86
2022/03/21 06:10:25;;;;;;;26.88;16.05;;;;;;;;;;5020265;28;20046;-85
2022/03/21 06:12:51;;;;;;;25.38;15.60;;;;;;;;;;5038399;28;20088;-86
2022/03/21 06:15:17;;;;;;;24.88;15.65;;;;;;;;;;5037396;28;20085;-85
2022/03/21 06:17:44;;;;;;;24.50;16.08;;;;;;;;;;5038413;28;20045;-86
2022/03/21 06:20:19;;;;;;;30.75;16.60;;;;;;;;;;5037057;28;20127;-86
2022/03/21 06:22:45;;;;;;;30.00;17.02;;;;;;;;;;5021710;28;20447;-85
2022/03/21 06:25:12;;;;;;;28.90;16.13;;;;;;;;;;5037387;28;20056;-86
2022/03/21 06:27:39;;;;;;;28.05;16.98;;;;;;;;;;5036405;28;20498;-85
2022/03/21 06:30:09;;;;;;;31.17;16.67;;;;;;;;;;5020136;28;20046;-85
2022/03/21 06:32:36;;;;;;;28.50;17.35;;;;;;;;;;5036424;28;20406;-86
2022/03/21 06:35:05;;;;;;;31.35;16.67;;;;;;;;;;5038019;28;20071;-86
2022/03/21 06:37:32;;;;;;;28.88;16.98;;;;;;;;;;5036675;28;20451;-85
2022/03/21 06:39:58;;;;;;;24.23;14.55;;;;;;;;;;5036441;28;20088;-85
2022/03/21 06:42:24;;;;;;;24.50;15.90;;;;;;;;;;5036937;28;20436;-85
2022/03/21 06:44:52;;;;;;;25.45;15.90;;;;;;;;;;5036798;28;20132;-86
2022/03/21 06:47:19;;;;;;;26.35;16.55;;;;;;;;;;5020745;28;20045;-86
2022/03/21 06:49:46;;;;;;;27.52;15.90;;;;;;;;;;5020184;28;20046;-85
2022/03/21 06:52:12;;;;;;;28.95;16.73;;;;;;;;;;5037069;28;20384;-85
2022/03/21 06:54:39;;;;;;;28.13;17.55;;;;;;;;;;5020819;28;20053;-85
2022/03/21 06:57:05;;;;;;;34.40;17.92;;;;;;;;;;5037574;28;20466;-85
2022/03/21 06:59:35;;;;;;;26.38;15.73;;;;;;;;;;5036816;28;20046;-85
2022/03/21 07:02:01;;;;;;;24.10;16.02;;;;;;;;;;5036142;28;20049;-86
2022/03/21 07:04:28;;;;;;;30.38;16.15;;;;;;;;;;5019923;28;20051;-86
2022/03/21 07:06:54;;;;;;;29.73;15.30;;;;;;;;;;5020870;28;20038;-86
2022/03/21 07:09:21;;;;;;;29.15;16.95;;;;;;;;;;5036427;28;20044;-85
2022/03/21 07:11:47;;;;;;;31.85;16.73;;;;;;;;;;5037860;28;20049;-86
2022/03/21 07:14:13;;;;;;;29.65;16.63;;;;;;;;;;5036676;28;20045;-86
2022/03/21 07:16:39;;;;;;;31.00;17.90;;;;;;;;;;5020646;28;20128;-86
2022/03/21 07:19:06;;;;;;;27.33;15.30;;;;;;;;;;5035957;28;20502;-85
2022/03/21 07:21:32;;;;;;;30.45;16.55;;;;;;;;;;5018990;28;20394;-85
2022/03/21 07:24:01;;;;;;;34.78;18.05;;;;;;;;;;5020752;28;20390;-85
2022/03/21 07:26:28;;;;;;;25.48;17.85;;;;;;;;;;5019330;28;20053;-86
2022/03/21 07:28:54;;;;;;;30.02;16.35;;;;;;;;;;5019152;28;20046;-86
2022/03/21 07:31:20;;;;;;;40.17;18.45;;;;;;;;;;5019199;28;20052;-85
2022/03/21 07:33:49;;;;;;;33.58;18.67;;;;;;;;;;5037087;28;20398;-85
2022/03/21 07:36:15;;;;;;;32.75;19.50;;;;;;;;;;5020617;28;20496;-87
2022/03/21 07:38:41;;;;;;;34.97;20.88;;;;;;;;;;5035781;28;20128;-85
2022/03/21 07:41:07;;;;;;;39.92;22.08;;;;;;;;;;5035877;28;20490;-85
2022/03/21 07:43:36;;;;;;;37.63;22.02;;;;;;;;;;5019407;28;20041;-86
2022/03/21 07:48:48;;;;;;;34.85;22.23;;;;;;;;;;5036722;28;20077;-85
2022/03/21 07:51:14;;;;;;;38.53;23.42;;;;;;;;;;5020746;28;20046;-85
2022/03/21 07:53:41;;;;;;;37.78;23.23;;;;;;;;;;5019759;28;20399;-86
2022/03/21 07:56:08;;;;;;;39.33;23.15;;;;;;;;;;5019530;28;20045;-85
2022/03/21 07:58:34;;;;;;;37.92;22.95;;;;;;;;;;5036885;28;20091;-85
2022/03/21 08:01:00;;;;;;;38.83;22.15;;;;;;;;;;5037430;28;20049;-85
2022/03/21 08:03:27;;;;;;;38.30;22.17;;;;;;;;;;5036942;28;20045;-85
2022/03/21 08:05:53;;;;;;;34.92;20.08;;;;;;;;;;5036493;28;20046;-85
2022/03/21 08:08:22;;;;;;;37.58;22.00;;;;;;;;;;5036212;28;20099;-85
2022/03/21 08:10:48;;;;;;;35.55;20.83;;;;;;;;;;5035935;28;20049;-85
2022/03/21 08:13:17;;;;;;;38.50;21.33;;;;;;;;;;5035415;28;20045;-85
2022/03/21 08:15:44;;;;;;;34.95;20.00;;;;;;;;;;5020001;28;20037;-85
2022/03/21 08:18:11;;;;;;;31.73;19.55;;;;;;;;;;5035121;28;20056;-85
2022/03/21 08:20:39;;;;;;;37.40;20.77;;;;;;;;;;5035171;28;20041;-85
2022/03/21 08:23:11;;;;;;;35.20;20.83;;;;;;;;;;5019453;28;20124;-85
2022/03/21 08:25:45;;;;;;;34.00;20.33;;;;;;;;;;5035148;28;20046;-85
2022/03/21 08:28:12;;;;;;;30.85;19.05;;;;;;;;;;5019919;28;20041;-85
2022/03/21 08:30:39;;;;;;;35.92;21.75;;;;;;;;;;5018785;28;20057;-85
2022/03/21 08:33:06;;;;;;;33.65;20.83;;;;;;;;;;5019258;28;20084;-85
2022/03/21 08:35:33;;;;;;;38.58;21.48;;;;;;;;;;5019129;28;20505;-85
2022/03/21 08:38:00;;;;;;;37.20;20.70;;;;;;;;;;5018089;28;20044;-85
2022/03/21 08:40:26;;;;;;;37.47;19.58;;;;;;;;;;5018108;28;20170;-85
2022/03/21 08:42:53;;;;;;;32.95;21.02;;;;;;;;;;5017606;28;20045;-84
2022/03/21 08:45:21;;;;;;;32.58;20.70;;;;;;;;;;5034549;28;20045;-85
2022/03/21 08:47:49;;;;;;;35.33;22.08;;;;;;;;;;5019090;28;20137;-86
2022/03/21 08:50:15;;;;;;;35.20;20.85;;;;;;;;;;5018078;28;20060;-85
2022/03/21 08:52:41;;;;;;;40.67;22.42;;;;;;;;;;5018667;28;20052;-85
2022/03/21 08:55:07;;;;;;;30.80;20.27;;;;;;;;;;5018812;28;20037;-85
2022/03/21 08:57:34;;;;;;;39.35;20.65;;;;;;;;;;5019202;28;20042;-86
2022/03/21 09:00:02;;;;;;;36.92;20.23;;;;;;;;;;5018708;28;20049;-85
2022/03/21 09:02:29;;;;;;;33.92;20.63;;;;;;;;;;5034481;28;20375;-85
2022/03/21 09:04:55;;;;;;;31.15;19.45;;;;;;;;;;5034857;28;20057;-84
2022/03/21 09:07:21;;;;;;;35.22;20.95;;;;;;;;;;5034319;28;20509;-85
2022/03/21 09:09:47;;;;;;;33.88;19.23;;;;;;;;;;5018531;28;20474;-85
2022/03/21 09:12:13;;;;;;;38.45;19.85;;;;;;;;;;5017526;28;20503;-85
2022/03/21 09:14:39;;;;;;;36.13;20.25;;;;;;;;;;5018082;28;20077;-85
2022/03/21 09:17:06;;;;;;;36.25;21.05;;;;;;;;;;5017834;28;20045;-85
2022/03/21 09:19:32;;;;;;;30.83;20.17;;;;;;;;;;5017702;28;20594;-85
2022/03/21 09:21:58;;;;;;;32.22;20.25;;;;;;;;;;5033551;28;20053;-86
2022/03/21 09:24:34;;;;;;;32.00;19.40;;;;;;;;;;5017277;28;20398;-85
2022/03/21 09:27:00;;;;;;;33.05;19.30;;;;;;;;;;5033118;28;20041;-85
2022/03/21 09:29:26;;;;;;;34.78;18.42;;;;;;;;;;5017399;28;20073;-86
2022/03/21 09:31:53;;;;;;;33.03;20.38;;;;;;;;;;5018485;28;20049;-85
2022/03/21 09:34:19;;;;;;;29.00;18.92;;;;;;;;;;5035305;28;20132;-86
2022/03/21 09:36:45;;;;;;;32.65;18.30;;;;;;;;;;5034925;28;20049;-85
2022/03/21 09:39:12;;;;;;;28.33;17.90;;;;;;;;;;5017195;28;20473;-86
2022/03/21 09:41:42;;;;;;;34.60;18.77;;;;;;;;;;5035189;28;20128;-85
2022/03/21 09:44:09;;;;;;;40.95;19.23;;;;;;;;;;5033283;28;20053;-85
2022/03/21 09:46:35;;;;;;;28.70;18.52;;;;;;;;;;5016207;28;20053;-86
2022/03/21 09:49:03;;;;;;;29.70;18.27;;;;;;;;;;5032938;28;20053;-84
2022/03/21 09:51:30;;;;;;;31.77;18.13;;;;;;;;;;5033341;28;20179;-85
2022/03/21 09:53:57;;;;;;;30.90;17.83;;;;;;;;;;5033196;28;20124;-85
2022/03/21 09:56:27;;;;;;;29.40;17.23;;;;;;;;;;5033250;28;20050;-85
2022/03/21 09:58:59;;;;;;;31.85;17.98;;;;;;;;;;5017019;28;20138;-84
2022/03/21 10:01:26;;;;;;;30.35;16.50;;;;;;;;;;5033875;28;20123;-85
2022/03/21 10:03:52;;;;;;;34.45;17.70;;;;;;;;;;5033377;28;20049;-85
2022/03/21 10:06:35;;;;;;;24.40;15.93;;;;;;;;;;5035032;28;20049;-85
2022/03/21 10:09:15;;;;;;;26.48;16.77;;;;;;;;;;5016945;28;20045;-86
2022/03/21 10:11:51;;;;;;;28.35;16.48;;;;;;;;;;5033577;28;20080;-85
2022/03/21 10:14:24;;;;;;;29.02;17.65;;;;;;;;;;5016681;28;20371;-85
2022/03/21 10:16:51;;;;;;;23.58;15.20;;;;;;;;;;5033326;28;20042;-86
2022/03/21 10:19:17;;;;;;;27.08;17.15;;;;;;;;;;5016473;28;20049;-86
2022/03/21 10:21:59;;;;;;;24.05;15.68;;;;;;;;;;5033942;28;20468;-86
2022/03/21 10:24:25;;;;;;;20.50;13.98;;;;;;;;;;5032620;28;20099;-86
2022/03/21 10:26:51;;;;;;;25.17;15.23;;;;;;;;;;5032831;28;20045;-86
2022/03/21 10:29:18;;;;;;;22.23;13.32;;;;;;;;;;5016619;28;20088;-86
2022/03/21 10:31:46;;;;;;;21.42;12.75;;;;;;;;;;5034315;28;20077;-86
2022/03/21 10:34:17;;;;;;;25.55;14.52;;;;;;;;;;5017168;28;20087;-86
2022/03/21 10:37:01;;;;;;;19.95;13.93;;;;;;;;;;5033406;28;20046;-86
2022/03/21 10:39:28;;;;;;;18.65;13.45;;;;;;;;;;5033372;28;20107;-86
2022/03/21 10:41:56;;;;;;;20.42;13.93;;;;;;;;;;5016924;28;20050;-86
2022/03/21 10:44:23;;;;;;;24.50;15.52;;;;;;;;;;5016856;28;20625;-86
2022/03/21 10:46:53;;;;;;;24.40;14.55;;;;;;;;;;5000537;28;20410;-85
2022/03/21 10:49:27;;;;;;;21.02;14.15;;;;;;;;;;5032240;28;20517;-86
2022/03/21 10:51:54;;;;;;;22.83;16.00;;;;;;;;;;5016291;28;20086;-85
2022/03/21 10:54:35;;;;;;;22.52;14.35;;;;;;;;;;5033287;28;20041;-87
2022/03/21 10:57:01;;;;;;;24.52;14.73;;;;;;;;;;5018503;28;20045;-85
2022/03/21 10:59:27;;;;;;;22.90;16.02;;;;;;;;;;5036919;28;20049;-87
2022/03/21 11:02:11;;;;;;;23.05;15.20;;;;;;;;;;5020467;28;20096;-86
2022/03/21 11:04:37;;;;;;;;;;;11.60;99.90;;;;;;5019541;28;20049;-86
2022/03/21 11:07:05;;;;;;;23.15;14.05;;;11.70;99.90;;;;;;5019363;28;20007;-86
2022/03/21 11:09:32;;;;;;;26.63;13.98;;;;;;;;;;5019277;28;20037;-86
2022/03/21 11:12:00;;;;;;;23.33;14.15;;;;;;;;;;5018817;28;20088;-86
2022/03/21 11:14:26;;;;;;;21.35;14.18;;;;;;;;;;5019230;28;20151;-86
2022/03/21 11:16:53;;;;;;;23.30;14.80;;;;;;;;;;5020343;28;20085;-86
2022/03/21 11:19:19;;;;;;;22.70;14.23;;;;;;;;;;5019157;28;20041;-86
2022/03/21 11:21:45;;;;;;;25.50;14.60;;;;;;;;;;5018698;28;20045;-86
2022/03/21 11:24:12;;;;;;;23.13;14.93;;;;;;;;;;5018540;28;20069;-86
2022/03/21 11:26:41;;;;;;;22.52;14.77;;;;;;;;;;5035141;28;20537;-86
2022/03/21 11:29:18;;;;;;;23.63;14.02;;;;;;;;;;5018771;28;20095;-86
2022/03/21 11:32:17;;;;;;;23.08;14.95;;;12.40;99.90;;;;;;5018956;28;20111;-86
2022/03/21 11:34:47;;;;;;;23.60;15.00;;;;;;;;;;5018890;28;20049;-86
2022/03/21 11:37:31;;;;;;;22.73;14.98;;;12.40;99.90;;;;;;5019324;28;20203;-86
2022/03/21 11:40:16;;;;;;;27.25;14.85;;;;;;;;;;5019013;28;20037;-86
2022/03/21 11:42:42;;;;;;;20.95;13.77;;;;;;;;;;5019056;28;20057;-86
2022/03/21 11:45:24;;;;;;;23.75;14.00;;;;;;;;;;5035991;28;20111;-86
2022/03/21 11:47:51;;;;;;;21.55;14.50;;;;;;;;;;5035015;28;20059;-86
2022/03/21 11:50:27;;;;;;;28.65;13.65;;;;;;;;;;5018333;28;20449;-86
2022/03/21 11:53:09;;;;;;;21.20;14.43;;;;;;;;;;5019489;28;20088;-87
2022/03/21 11:55:43;;;;;;;22.48;15.15;;;12.60;99.90;;;;;;5037345;28;20137;-86
2022/03/21 11:58:21;;;;;;;;;;;12.70;99.90;;;;;;5036016;28;20037;-86
2022/03/21 12:01:05;;;;;;;22.75;15.23;;;;;;;;;;5035486;28;19975;-86
2022/03/21 12:03:35;;;;;;;23.52;15.70;;;;;;;;;;5035777;28;20077;-86
2022/03/21 12:06:19;;;;;;;18.30;13.02;;;12.90;99.90;;;;;;5035614;28;20084;-86
2022/03/21 12:08:50;;;;;;;21.15;14.68;;;;;;;;;;5034984;28;20041;-86
2022/03/21 12:11:37;;;;;;;22.67;14.10;;;;;;;;;;5034838;28;20045;-86
2022/03/21 12:14:26;;;;;;;22.98;14.57;;;;;;;;;;5035011;28;20049;-87
2022/03/21 12:17:01;;;;;;;22.48;14.15;;;;;;;;;;5019127;28;20053;-86
2022/03/21 12:19:48;;;;;;;27.27;15.93;;;;;;;;;;5018180;28;20053;-86
2022/03/21 12:22:29;;;;;;;21.95;14.32;;;;;;;;;;5035292;28;20113;-86
2022/03/21 12:25:02;;;;;;;24.08;15.48;;;;;;;;;;5033841;28;20099;-86
2022/03/21 12:27:48;;;;;;;19.95;13.43;;;13.40;99.90;;;;;;5018364;28;20427;-86
2022/03/21 12:30:30;;;;;;;23.30;15.20;;;;;;;;;;5034950;28;20052;-86
2022/03/21 12:33:12;;;;;;;22.48;14.63;;;13.40;99.90;;;;;;5018960;28;20140;-86
2022/03/21 12:35:47;;;;;;;20.55;13.07;;;;;;;;;;5034855;28;20085;-86
2022/03/21 12:38:20;;;;;;;20.05;13.98;;;13.30;99.90;;;;;;5034382;28;20088;-86
2022/03/21 12:40:50;;;;;;;21.08;13.75;;;;;;;;;;5036029;28;20053;-87
2022/03/21 12:43:19;;;;;;;22.60;13.40;;;;;;;;;;5034661;28;20491;-87
2022/03/21 12:45:46;;;;;;;22.55;14.25;;;;;;;;;;5019878;28;20045;-86
2022/03/21 12:48:14;;;;;;;22.02;14.90;;;;;;;;;;5021293;28;20056;-93
2022/03/21 12:50:40;;;;;;;24.83;14.18;;;;;;;;;;5036981;28;20112;-87
2022/03/21 12:53:11;;;;;;;17.83;13.05;;;13.60;99.90;;;;;;5037102;28;20041;-87
2022/03/21 12:55:38;;;;;;;19.30;14.25;;;;;;;;;;5037577;28;20045;-94
2022/03/21 12:58:07;;;;;;;18.45;12.85;;;;;;;;;;5021708;28;20125;-88
2022/03/21 13:00:37;;;;;;;28.23;14.27;;;13.90;99.90;;;;;;5020935;28;20042;-90
2022/03/21 13:03:06;;;;;;;21.50;14.32;;;;;;;;;;5019910;28;20584;-91
2022/03/21 13:11:39;;;;;;;20.27;13.38;;;14.30;99.90;;;;;;5035595;28;20075;-84
2022/03/21 13:14:06;;;;;;;22.75;14.07;;;;;;;;;;5018299;28;20045;-86
2022/03/21 13:16:38;;;;;;;20.63;11.68;;;;;;;;;;5018790;28;20049;-86
2022/03/21 13:19:08;;;;;;;18.90;12.85;;;14.30;99.90;;;;;;5018317;28;20045;-86
2022/03/21 13:21:38;;;;;;;23.80;12.73;;;;;;;;;;5032891;28;20057;-86
2022/03/21 13:24:07;;;;;;;16.42;11.85;;;;;;;;;;5033778;28;20041;-87
2022/03/21 13:26:34;;;;;;;18.70;12.15;;;;;;;;;;5016735;28;20080;-85
2022/03/21 13:29:08;;;;;;;19.63;13.02;;;14.30;99.90;;;;;;5017818;28;20041;-85
2022/03/21 13:31:34;;;;;;;17.08;12.65;;;;;;;;;;5017503;28;20095;-86
2022/03/21 13:34:04;;;;;;;20.52;12.60;;;14.40;99.90;;;;;;5017501;28;20505;-86
2022/03/21 13:36:30;;;;;;;22.00;12.52;;;;;;;;;;5034321;28;20142;-87
2022/03/21 13:39:16;;;;;;;24.55;13.90;;;14.50;99.90;;;;;;5018956;28;20049;-87
2022/03/21 13:42:00;;;;;;;19.33;12.60;;;;;;;;;;5035356;28;20491;-87
2022/03/21 13:44:29;;;;;;;19.58;13.43;;;14.90;99.90;;;;;;5035615;28;20050;-87
2022/03/21 13:47:01;;;;;;;22.13;13.15;;;14.80;99.90;;;;;;5033951;28;20124;-85
2022/03/21 13:49:54;;;;;;;22.55;12.70;;;14.70;99.90;;;;;;5034138;28;20065;-87
2022/03/21 13:52:59;;;;;;;20.67;12.38;;;14.70;99.90;;;;;;5033231;28;20065;-87
2022/03/21 13:55:25;;;;;;;25.73;12.50;;;;;;;;;;4954449;29;20055;-87
2022/03/21 13:57:52;;;;;;;22.08;12.63;;;;;;;;;;4924534;29;20055;-86
2022/03/21 14:00:21;;;;;;;19.77;13.10;;;;;;;;;;4924505;29;20055;-87
2022/03/21 14:02:48;;;;;;;18.17;12.45;;;14.80;99.90;;;;;;4924872;29;20051;-87
2022/03/21 14:05:14;;;;;;;22.13;14.18;;;;;;;;;;4924876;29;20118;-87
2022/03/21 14:07:40;;;;;;;20.35;14.18;;;;;;;;;;4924111;29;20091;-86
2022/03/21 14:10:17;;;;;;;21.70;13.65;;;14.90;99.90;;;;;;4940107;29;20051;-86
2022/03/21 14:12:48;;;;;;;20.25;13.50;;;;;;;;;;4924186;29;20121;-87
2022/03/21 14:15:15;;;;;;;21.10;14.00;;;;;;;;;;4939303;29;20520;-86
2022/03/21 14:17:41;;;;;;;20.00;12.38;;;;;;;;;;4938597;29;20058;-87
2022/03/21 14:20:08;;;;;;;22.88;13.77;;;;;;;;;;4922607;29;20055;-86
2022/03/21 14:22:34;;;;;;;21.27;12.70;;;;;;;;;;4922508;29;20070;-87
2022/03/21 14:25:00;;;;;;;24.60;13.10;;;;;;;;;;4925344;28;20165;-86
2022/03/21 14:27:29;;;;;;;20.67;12.93;;;;;;;;;;5019034;28;20049;-86
2022/03/21 14:29:55;;;;;;;20.70;13.30;;;;;;;;;;5019151;28;20046;-86
2022/03/21 14:32:22;;;;;;;18.27;12.35;;;;;;;;;;5038374;28;20045;-85
2022/03/21 14:34:48;;;;;;;21.05;12.57;;;;;;;;;;5020937;28;20049;-87
2022/03/21 14:37:14;;;;;;;24.90;14.73;;;;;;;;;;5021133;28;20053;-87
2022/03/21 14:39:41;;;;;;;17.23;12.43;;;;;;;;;;5037481;28;20136;-86